Time;durP1;ratioP1;P1;durP2;ratioP2;P2;SDS_P1;SDS_P2;PMS_P1;PMS_P2;Temp;Humidity;BMP_temperature;BMP_pressure;BME280_temperature;BME280_humidity;BME280_pressure;Samples;Min_cycle;Max_cycle;Signal;HPM_P1;HPM_P2
2023/02/11 00:01:36;;;;;;;76.35;30.38;;;;;;;1.10;100.00;101226.97;5046163;28;20494;-59
2023/02/11 00:04:02;;;;;;;85.05;33.00;;;;;;;1.08;100.00;101219.22;5047903;28;20080;-59
2023/02/11 00:06:28;;;;;;;78.15;30.67;;;;;;;1.13;100.00;101213.53;5044859;28;20032;-59
2023/02/11 00:08:54;;;;;;;76.60;30.92;;;;;;;1.15;100.00;101214.22;5053425;28;20062;-59
2023/02/11 00:11:20;;;;;;;89.47;34.35;;;;;;;1.13;100.00;101210.91;5048617;28;20060;-58
2023/02/11 00:13:46;;;;;;;78.72;34.58;;;;;;;1.11;100.00;101210.19;5046007;28;20029;-58
2023/02/11 00:16:16;;;;;;;108.57;43.72;;;;;;;1.11;100.00;101212.81;5020854;28;20440;-58
2023/02/11 00:18:41;;;;;;;75.50;31.08;;;;;;;1.10;100.00;101206.72;5031221;28;20044;-59
2023/02/11 00:21:08;;;;;;;97.03;36.95;;;;;;;1.19;100.00;101207.72;5045759;28;20029;-59
2023/02/11 00:23:33;;;;;;;93.63;37.65;;;;;;;1.13;100.00;101216.19;5047583;28;20395;-59
2023/02/11 00:25:58;;;;;;;88.72;35.67;;;;;;;1.05;100.00;101209.75;5040978;28;20067;-59
2023/02/11 00:28:24;;;;;;;78.03;29.88;;;;;;;1.04;100.00;101205.41;5042807;28;20033;-59
2023/02/11 00:30:56;;;;;;;92.20;38.45;;;;;;;1.02;100.00;101204.75;5038710;28;20033;-59
2023/02/11 00:33:21;;;;;;;85.57;34.95;;;;;;;1.06;100.00;101218.50;5044677;28;20101;-59
2023/02/11 00:35:47;;;;;;;89.75;33.78;;;;;;;1.03;100.00;101209.03;5041244;28;20602;-59
2023/02/11 00:38:12;;;;;;;85.70;34.80;;;;;;;1.06;100.00;101207.94;5041718;28;20029;-59
2023/02/11 00:40:38;;;;;;;66.53;31.05;;;;;;;1.06;100.00;101206.13;5042917;28;20040;-59
2023/02/11 00:43:03;;;;;;;106.90;49.33;;;;;;;1.05;100.00;101204.47;5036071;28;20340;-59
2023/02/11 00:45:29;;;;;;;89.35;35.38;;;;;;;1.08;100.00;101208.66;5046850;28;20375;-59
2023/02/11 00:47:55;;;;;;;93.43;37.53;;;;;;;1.11;100.00;101204.91;5039230;28;20052;-59
2023/02/11 00:50:20;;;;;;;95.78;37.92;;;;;;;1.11;100.00;101196.97;5040273;28;20815;-59
2023/02/11 00:52:46;;;;;;;99.80;35.60;;;;;;;1.12;100.00;101202.13;5037320;28;20040;-59
2023/02/11 00:55:11;;;;;;;72.30;32.10;;;;;;;1.11;100.00;101191.69;5040912;28;20036;-59
2023/02/11 00:57:37;;;;;;;110.15;43.97;;;;;;;1.08;100.00;101204.19;5042135;28;20033;-59
2023/02/11 01:00:03;;;;;;;54.42;24.65;;;;;;;1.10;100.00;101200.56;5046214;28;20037;-59
2023/02/11 01:02:29;;;;;;;74.55;33.78;;;;;;;1.10;100.00;101212.00;5033778;28;20040;-59
2023/02/11 01:04:54;;;;;;;73.80;28.83;;;;;;;1.08;100.00;101204.19;5040577;28;20308;-59
2023/02/11 01:07:19;;;;;;;68.55;27.88;;;;;;;1.11;100.00;101204.91;5043634;28;20036;-59
2023/02/11 01:09:45;;;;;;;62.50;25.85;;;;;;;1.10;100.00;101195.28;5069609;28;20057;-59
2023/02/11 01:12:10;;;;;;;76.13;31.08;;;;;;;1.13;100.00;101192.41;5039370;28;20021;-59
2023/02/11 01:14:36;;;;;;;63.13;27.05;;;;;;;1.12;100.00;101199.47;5036584;28;20028;-59
2023/02/11 01:17:04;;;;;;;86.95;41.10;;;;;;;1.11;100.00;101192.53;5039489;28;20541;-59
2023/02/11 01:19:29;;;;;;;97.88;32.05;;;;;;;1.10;100.00;101193.50;5041757;28;20275;-59
2023/02/11 01:21:55;;;;;;;100.43;37.67;;;;;;;1.08;100.00;101192.81;5048991;28;20028;-59
2023/02/11 01:24:20;;;;;;;96.15;40.17;;;;;;;1.08;100.00;101190.16;5039509;28;20044;-59
2023/02/11 01:26:46;;;;;;;75.05;31.70;;;;;;;1.14;100.00;101199.34;5039530;28;20443;-59
2023/02/11 01:29:11;;;;;;;91.78;40.45;;;;;;;1.12;100.00;101201.28;5043533;28;20021;-59
2023/02/11 01:31:36;;;;;;;58.10;25.05;;;;;;;1.19;100.00;101194.50;5038724;28;20033;-59
2023/02/11 01:34:02;;;;;;;80.57;32.38;;;;;;;1.21;100.00;101187.28;5044196;28;20037;-58
2023/02/11 01:36:27;;;;;;;92.38;37.00;;;;;;;1.22;100.00;101173.09;5045230;28;20426;-58
2023/02/11 01:38:53;;;;;;;86.95;36.28;;;;;;;1.22;100.00;101175.75;5035402;28;20041;-58
2023/02/11 01:41:18;;;;;;;94.47;36.63;;;;;;;1.19;100.00;101168.09;5044294;28;20430;-58
2023/02/11 01:43:45;;;;;;;100.72;37.50;;;;;;;1.21;100.00;101171.44;5047642;28;20386;-58
2023/02/11 01:46:30;;;;;;;101.90;40.17;;;;;;;1.20;100.00;101164.47;5043989;28;20392;-58
2023/02/11 01:49:11;;;;;;;99.53;38.63;;;;;;;1.19;100.00;101165.44;5039195;28;20611;-58
2023/02/11 01:51:40;;;;;;;94.82;38.20;;;;;;;1.19;100.00;101181.28;5044471;28;20442;-58
2023/02/11 01:59:57;;;;;;;86.72;32.55;;;;;;;1.14;100.00;101167.66;5035681;28;20036;-58
2023/02/11 02:02:28;;;;;;;78.55;31.55;;;;;;;1.16;100.00;101157.81;5036658;28;20028;-58
2023/02/11 02:04:57;;;;;;;82.97;32.67;;;;;;;1.15;100.00;101158.75;5036842;28;20383;-58
2023/02/11 02:08:04;;;;;;;111.47;39.15;;;;;;;1.13;100.00;101152.78;5044899;28;20024;-59
2023/02/11 02:10:29;;;;;;;99.90;38.30;;;;;;;1.07;100.00;101162.06;5025833;28;20625;-58
2023/02/11 02:12:55;;;;;;;97.30;37.03;;;;;;;1.03;100.00;101160.69;5032499;28;20118;-58
2023/02/11 02:15:25;;;;;;;82.75;31.70;;;;;;;1.00;100.00;101156.50;5041200;28;20024;-58
2023/02/11 02:18:01;;;;;;;;;;;;;;;0.95;100.00;101150.78;5042865;28;20673;-58
2023/02/11 02:20:45;;;;;;;91.40;36.10;;;;;;;0.91;100.00;101152.00;5026561;28;19940;-60
2023/02/11 02:23:23;;;;;;;85.28;35.28;;;;;;;0.90;100.00;101147.69;5039471;28;20671;-58
2023/02/11 02:26:07;;;;;;;99.45;38.28;;;;;;;0.91;100.00;101159.09;5041001;28;20025;-60
2023/02/11 02:28:42;;;;;;;92.15;36.03;;;;;;;0.86;100.00;101148.94;5046675;28;20028;-59
2023/02/11 02:31:30;;;;;;;117.10;43.80;;;;;;;0.90;100.00;101160.03;5069002;28;20040;-59
2023/02/11 02:34:15;;;;;;;115.18;40.42;;;;;;;0.87;100.00;101163.78;5040772;28;20467;-59
2023/02/11 02:37:08;;;;;;;96.00;35.30;;;;;;;0.97;100.00;101183.16;5035834;28;20421;-59
2023/02/11 02:39:34;;;;;;;108.90;39.78;;;;;;;0.92;100.00;101172.16;5037199;28;20036;-59
2023/02/11 02:42:00;;;;;;;89.43;37.55;;;;;;;0.88;100.00;101172.56;5033411;28;20112;-59
2023/02/11 02:44:25;;;;;;;96.35;37.80;;;;;;;0.83;100.00;101172.97;5025877;28;20487;-59
2023/02/11 02:46:50;;;;;;;65.85;26.88;;;;;;;0.85;100.00;101165.75;5039609;28;20484;-59
2023/02/11 02:49:16;;;;;;;94.75;36.40;;;;;;;0.86;100.00;101162.97;5040724;28;20935;-59
2023/02/11 02:52:03;;;;;;;90.20;33.30;;;;;;;0.86;100.00;101160.31;5045742;28;20442;-59
2023/02/11 02:54:56;;;;;;;66.10;30.05;;;;;;;0.88;100.00;101162.84;5042194;28;20045;-59
2023/02/11 02:57:26;;;;;;;70.90;26.60;;;;;;;0.90;100.00;101160.91;5053593;28;20442;-59
2023/02/11 03:00:17;;;;;;;76.85;30.73;;;;;;;0.95;100.00;101161.34;5042241;28;20352;-59
2023/02/11 03:03:09;;;;;;;61.85;23.85;;;;;;;0.98;100.00;101166.34;5032887;28;20029;-59
2023/02/11 03:05:40;;;;;;;68.13;25.38;;;;;;;1.06;100.00;101168.31;5037179;28;20162;-59
2023/02/11 03:08:33;;;;;;;80.13;30.70;;;;;;;1.06;100.00;101165.69;5050032;28;20037;-59
2023/02/11 03:10:59;;;;;;;98.60;38.50;;;;;;;1.04;100.00;101155.25;5043964;28;20041;-59
2023/02/11 03:13:27;;;;;;;80.32;33.20;;;;;;;1.01;100.00;101152.88;5046762;28;20115;-59
2023/02/11 03:15:54;;;;;;;96.22;36.72;;;;;;;0.98;100.00;101145.22;5058762;28;20040;-59
2023/02/11 03:18:23;;;;;;;78.25;30.63;;;;;;;0.96;100.00;101147.16;5044956;28;20106;-59
2023/02/11 03:20:50;;;;;;;95.55;36.38;;;;;;;0.93;100.00;101147.44;5028340;28;20561;-59
2023/02/11 03:23:22;;;;;;;83.40;35.90;;;;;;;0.96;100.00;101151.63;5056453;28;20033;-59
2023/02/11 03:25:49;;;;;;;79.07;34.03;;;;;;;0.96;100.00;101151.63;5041672;28;20090;-59
2023/02/11 03:28:29;;;;;;;71.82;28.55;;;;;;;0.90;100.00;101146.84;5026446;28;20484;-59
2023/02/11 03:31:17;;;;;;;71.57;30.30;;;;;;;0.86;100.00;101143.66;5039868;28;20068;-59
2023/02/11 03:34:07;;;;;;;94.28;37.33;;;;;;;0.80;100.00;101126.53;5046941;28;20033;-59
2023/02/11 03:36:51;;;;;;;88.85;33.47;;;;;;;0.76;100.00;101113.72;5017574;28;20324;-59
2023/02/11 03:39:19;;;;;;;67.82;28.00;;;;;;;0.72;100.00;101089.41;5044661;28;20095;-59
2023/02/11 03:41:45;;;;;;;99.68;39.15;;;;;;;0.71;100.00;101097.47;5044334;28;20038;-59
2023/02/11 03:44:10;;;;;;;99.28;37.58;;;;;;;0.69;100.00;101104.66;5056621;28;20044;-59
2023/02/11 03:46:36;;;;;;;109.43;41.13;;;;;;;0.66;100.00;101110.22;5033365;28;20025;-59
2023/02/11 03:49:04;;;;;;;82.95;34.58;;;;;;;0.60;100.00;101104.50;5041589;28;20400;-58
2023/02/11 03:51:30;;;;;;;78.63;33.38;;;;;;;0.55;100.00;101106.69;5032194;28;20021;-59
2023/02/11 03:53:56;;;;;;;111.88;41.58;;;;;;;0.54;100.00;101098.91;5017159;28;20013;-59
2023/02/11 03:56:23;;;;;;;105.15;39.50;;;;;;;0.51;100.00;101100.00;5061469;28;20036;-59
2023/02/11 03:58:49;;;;;;;97.15;36.20;;;;;;;0.53;100.00;101107.81;5020353;28;20051;-59
2023/02/11 04:01:14;;;;;;;106.70;42.80;;;;;;;0.46;100.00;101096.94;5071509;28;20485;-59
2023/02/11 04:03:40;;;;;;;107.13;38.83;;;;;;;0.41;100.00;101104.41;5031331;28;20060;-59
2023/02/11 04:06:05;;;;;;;118.00;42.00;;;;;;;0.41;100.00;101113.16;5039606;28;20430;-59
2023/02/11 04:08:31;;;;;;;114.30;41.00;;;;;;;0.37;100.00;101114.34;5041825;28;20025;-59
2023/02/11 04:10:57;;;;;;;109.72;40.28;;;;;;;0.35;100.00;101121.59;5066853;28;20045;-59
2023/02/11 04:13:22;;;;;;;111.68;41.28;;;;;;;0.29;100.00;101110.72;5040291;28;20218;-59
2023/02/11 04:15:48;;;;;;;117.00;41.50;;;;;;;0.29;100.00;101108.91;5043837;28;20055;-59
2023/02/11 04:18:13;;;;;;;65.63;24.98;;;;;;;0.31;100.00;101114.06;5037897;28;20468;-59
2023/02/11 04:20:38;;;;;;;98.07;35.88;;;;;;;0.29;100.00;101110.72;5046106;28;20094;-59
2023/02/11 04:23:04;;;;;;;80.57;31.95;;;;;;;0.31;100.00;101114.06;5043215;28;20388;-59
2023/02/11 04:25:29;;;;;;;103.03;39.72;;;;;;;0.28;100.00;101114.31;5041125;28;20358;-59
2023/02/11 04:27:55;;;;;;;104.78;40.08;;;;;;;0.27;100.00;101110.00;5032893;28;20530;-59
2023/02/11 04:30:20;;;;;;;112.30;42.40;;;;;;;0.23;100.00;101108.59;5050897;28;20043;-59
2023/02/11 04:32:46;;;;;;;79.70;30.02;;;;;;;0.22;100.00;101107.75;5041456;28;20025;-59
2023/02/11 04:35:11;;;;;;;86.53;35.35;;;;;;;0.32;100.00;101116.56;5045758;28;20452;-59
2023/02/11 04:37:37;;;;;;;83.70;33.42;;;;;;;0.33;100.00;101112.13;5051400;28;20028;-58
2023/02/11 04:40:02;;;;;;;96.88;36.47;;;;;;;0.38;100.00;101104.66;5048150;28;20106;-59
2023/02/11 04:42:28;;;;;;;66.10;27.77;;;;;;;0.40;100.00;101103.56;5047572;28;20032;-59
2023/02/11 04:44:53;;;;;;;93.15;37.00;;;;;;;0.44;100.00;101083.03;5039153;28;20486;-59
2023/02/11 04:47:19;;;;;;;98.80;36.92;;;;;;;0.41;100.00;101078.03;5038373;28;20035;-59
2023/02/11 04:49:44;;;;;;;112.05;39.88;;;;;;;0.47;100.00;101077.47;5033052;28;20447;-59
2023/02/11 04:52:10;;;;;;;98.53;35.60;;;;;;;0.49;100.00;101080.00;5039264;28;20380;-59
2023/02/11 04:54:35;;;;;;;103.20;41.00;;;;;;;0.52;100.00;101072.63;5042848;28;20060;-59
2023/02/11 04:57:00;;;;;;;112.00;39.70;;;;;;;0.49;100.00;101067.63;5043571;28;20055;-59
2023/02/11 04:59:26;;;;;;;104.47;38.35;;;;;;;0.53;100.00;101060.31;5048968;28;20028;-59
2023/02/11 05:01:51;;;;;;;128.95;43.85;;;;;;;0.51;100.00;101070.97;5041638;28;20033;-59
2023/02/11 05:04:17;;;;;;;99.32;38.67;;;;;;;0.45;100.00;101071.53;5036239;28;20559;-59
2023/02/11 05:06:42;;;;;;;118.35;39.45;;;;;;;0.44;100.00;101069.84;5041969;28;20151;-59
2023/02/11 05:09:09;;;;;;;114.00;40.80;;;;;;;0.41;100.00;101062.19;5035364;28;20037;-59
2023/02/11 05:11:35;;;;;;;119.25;40.05;;;;;;;0.40;100.00;101068.41;5038021;28;20139;-59
2023/02/11 05:14:01;;;;;;;98.68;37.30;;;;;;;0.36;100.00;101069.66;5040513;28;20036;-59
2023/02/11 05:16:26;;;;;;;117.30;41.65;;;;;;;0.24;100.00;101061.00;5048508;28;20152;-59
2023/02/11 05:18:54;;;;;;;91.50;32.10;;;;;;;0.25;100.00;101065.31;5047866;28;20028;-59
2023/02/11 05:21:19;;;;;;;81.15;32.90;;;;;;;0.23;100.00;101061.13;5048073;28;20524;-59
2023/02/11 05:23:45;;;;;;;91.07;33.60;;;;;;;0.14;100.00;101058.28;5038316;28;20029;-59
2023/02/11 05:26:11;;;;;;;82.35;31.45;;;;;;;0.07;100.00;101059.78;5068755;28;20029;-59
2023/02/11 05:28:36;;;;;;;120.70;42.95;;;;;;;0.05;100.00;101068.78;5041648;28;20029;-59
2023/02/11 05:31:02;;;;;;;93.15;32.80;;;;;;;0.01;100.00;101083.19;5037408;28;20415;-59
2023/02/11 05:33:28;;;;;;;93.13;32.88;;;;;;;0.04;100.00;101096.13;5045085;28;20029;-59
2023/02/11 05:36:05;;;;;;;120.22;46.08;;;;;;;0.05;100.00;101098.63;5033171;28;20091;-58
2023/02/11 05:38:31;;;;;;;99.03;36.08;;;;;;;0.02;100.00;101093.59;5041397;28;20071;-59
2023/02/11 05:40:56;;;;;;;91.90;37.88;;;;;;;0.02;100.00;101087.50;5038715;28;20064;-59
2023/02/11 05:43:22;;;;;;;91.13;39.58;;;;;;;0.00;100.00;101092.91;5042762;28;20463;-59
2023/02/11 05:45:47;;;;;;;94.50;36.42;;;;;;;-0.03;100.00;101086.06;5044130;28;20128;-59
2023/02/11 05:48:12;;;;;;;102.95;38.55;;;;;;;-0.09;100.00;101085.75;5044491;28;20025;-59
2023/02/11 05:50:38;;;;;;;96.47;35.05;;;;;;;-0.07;100.00;101074.13;5037866;28;20430;-59
2023/02/11 05:53:04;;;;;;;96.60;37.65;;;;;;;-0.06;100.00;101074.97;5035589;28;20539;-59
2023/02/11 05:55:30;;;;;;;94.80;37.58;;;;;;;-0.04;100.00;101080.94;5034879;28;20028;-59
2023/02/11 05:57:55;;;;;;;115.32;40.28;;;;;;;-0.04;100.00;101094.97;5035951;28;20052;-59
2023/02/11 06:00:21;;;;;;;74.90;31.75;;;;;;;0.04;100.00;101102.22;5039342;28;20025;-59
2023/02/11 06:02:46;;;;;;;89.00;34.17;;;;;;;0.07;100.00;101096.69;5043587;28;20017;-59
2023/02/11 06:05:11;;;;;;;120.22;42.03;;;;;;;0.12;100.00;101099.78;5032728;28;20087;-59
2023/02/11 06:07:37;;;;;;;113.03;40.22;;;;;;;0.09;100.00;101100.03;5041616;28;20567;-59
2023/02/11 06:10:02;;;;;;;114.22;40.28;;;;;;;0.14;100.00;101097.00;5041889;28;20408;-59
2023/02/11 06:12:28;;;;;;;121.78;42.35;;;;;;;0.13;100.00;101098.00;5041445;28;20471;-59
2023/02/11 06:14:53;;;;;;;114.22;43.40;;;;;;;0.16;100.00;101097.72;5033192;28;20431;-59
2023/02/11 06:17:19;;;;;;;121.18;43.65;;;;;;;0.16;100.00;101095.91;5045972;28;20291;-59
2023/02/11 06:19:44;;;;;;;96.38;38.75;;;;;;;0.13;100.00;101104.09;5039949;28;20035;-59
2023/02/11 06:22:10;;;;;;;118.45;41.92;;;;;;;0.17;100.00;101091.47;5037353;28;20057;-59
2023/02/11 06:24:36;;;;;;;94.05;35.20;;;;;;;0.19;100.00;101085.09;5034760;28;20026;-59
2023/02/11 06:27:03;;;;;;;96.95;35.83;;;;;;;0.24;100.00;101081.25;5039128;28;20071;-59
2023/02/11 06:29:28;;;;;;;106.90;36.70;;;;;;;0.23;100.00;101079.59;5051171;28;20434;-59
2023/02/11 06:31:53;;;;;;;129.02;44.13;;;;;;;0.32;100.00;101081.44;5038577;28;20095;-59
2023/02/11 06:34:19;;;;;;;136.52;47.60;;;;;;;0.33;100.00;101091.03;5050971;28;20234;-59
2023/02/11 06:36:44;;;;;;;128.85;49.00;;;;;;;0.37;100.00;101087.16;5048552;28;20032;-59
2023/02/11 06:39:11;;;;;;;83.13;35.15;;;;;;;0.48;100.00;101095.00;5041012;28;20017;-59
2023/02/11 06:41:36;;;;;;;133.48;44.53;;;;;;;0.48;100.00;101095.00;5046692;28;20029;-61
2023/02/11 06:44:02;;;;;;;119.63;41.88;;;;;;;0.56;100.00;101091.69;5041280;28;20499;-59
2023/02/11 06:46:27;;;;;;;112.13;38.75;;;;;;;0.60;100.00;101091.31;5046141;28;20032;-59
2023/02/11 06:48:53;;;;;;;138.30;46.33;;;;;;;0.59;100.00;101086.97;5036222;28;20476;-60
2023/02/11 06:51:18;;;;;;;123.80;42.28;;;;;;;0.73;100.00;101071.78;5040122;28;20028;-60
2023/02/11 06:53:45;;;;;;;132.88;46.42;;;;;;;0.74;100.00;101084.00;5039094;28;20040;-59
2023/02/11 06:56:15;;;;;;;131.40;44.33;;;;;;;0.74;100.00;101081.34;5042432;28;20525;-60
2023/02/11 06:58:40;;;;;;;99.68;39.30;;;;;;;0.74;100.00;101089.28;5039552;28;20040;-60
2023/02/11 07:01:07;;;;;;;121.53;43.85;;;;;;;0.85;100.00;101084.75;5044737;28;20337;-59
2023/02/11 07:03:35;;;;;;;93.13;37.85;;;;;;;0.79;100.00;101074.69;5043503;28;20044;-59
2023/02/11 07:06:00;;;;;;;127.78;44.72;;;;;;;0.82;100.00;101070.94;5012233;28;20109;-59
2023/02/11 07:08:26;;;;;;;138.57;48.13;;;;;;;0.90;100.00;101084.34;5047175;28;20036;-58
2023/02/11 07:10:51;;;;;;;134.30;46.85;;;;;;;0.95;100.00;101086.56;5046921;28;20669;-60
2023/02/11 07:13:17;;;;;;;133.35;46.55;;;;;;;1.06;100.00;101089.09;5040007;28;20088;-59
2023/02/11 07:15:42;;;;;;;127.15;42.85;;;;;;;1.06;100.00;101089.94;5039646;28;20022;-60
2023/02/11 07:18:07;;;;;;;98.93;37.17;;;;;;;1.14;100.00;101097.16;5043380;28;20029;-60
2023/02/11 07:20:33;;;;;;;133.52;44.58;;;;;;;1.18;100.00;101097.75;5042155;28;20033;-60
2023/02/11 07:22:58;;;;;;;138.55;46.67;;;;;;;1.18;100.00;101108.31;5050170;28;20029;-59
2023/02/11 07:25:24;;;;;;;115.78;40.63;;;;;;;1.22;100.00;101115.84;5043244;28;20032;-59
2023/02/11 07:27:50;;;;;;;135.57;45.40;;;;;;;1.32;100.00;101105.28;5047553;28;20029;-60
2023/02/11 07:30:15;;;;;;;137.68;47.15;;;;;;;1.33;100.00;101103.50;5038935;28;20037;-58
2023/02/11 07:32:41;;;;;;;130.68;46.97;;;;;;;1.31;100.00;101108.91;5046611;28;20025;-58
2023/02/11 07:35:06;;;;;;;121.22;44.22;;;;;;;1.32;100.00;101104.44;5046145;28;20025;-58
2023/02/11 07:37:33;;;;;;;139.60;46.10;;;;;;;1.37;100.00;101108.34;5043285;28;20127;-60
2023/02/11 07:39:59;;;;;;;145.10;48.03;;;;;;;1.39;100.00;101113.50;5042841;28;20066;-60
2023/02/11 07:42:24;;;;;;;116.78;41.53;;;;;;;1.50;100.00;101119.50;5040977;28;20041;-59
2023/02/11 07:44:49;;;;;;;122.07;43.25;;;;;;;1.53;100.00;101125.50;5033609;28;20078;-60
2023/02/11 07:47:15;;;;;;;119.68;42.97;;;;;;;1.45;100.00;101120.88;5045853;28;20029;-59
2023/02/11 07:49:44;;;;;;;122.88;43.97;;;;;;;1.48;100.00;101132.00;5041012;28;20039;-60
2023/02/11 07:52:09;;;;;;;106.93;39.75;;;;;;;1.48;100.00;101142.59;5046721;28;20029;-59
2023/02/11 07:54:36;;;;;;;137.30;46.00;;;;;;;1.58;100.00;101141.78;5059409;28;20040;-60
2023/02/11 07:57:01;;;;;;;124.82;42.55;;;;;;;1.58;100.00;101154.97;5040840;28;20132;-59
2023/02/11 07:59:27;;;;;;;118.78;41.28;;;;;;;1.63;100.00;101150.13;5038652;28;20029;-59
2023/02/11 08:01:53;;;;;;;131.68;44.78;;;;;;;1.65;100.00;101141.09;5041934;28;20025;-59
2023/02/11 08:04:18;;;;;;;126.15;42.20;;;;;;;1.67;100.00;101141.78;5051142;28;20108;-60
2023/02/11 08:06:44;;;;;;;139.02;43.55;;;;;;;1.75;100.00;101142.88;5036708;28;20021;-59
2023/02/11 08:09:14;;;;;;;121.70;38.80;;;;;;;1.76;100.00;101148.03;5038186;28;20132;-60
2023/02/11 08:11:45;;;;;;;136.40;42.95;;;;;;;1.79;100.00;101147.75;5044388;28;20051;-59
2023/02/11 08:14:11;;;;;;;127.20;42.85;;;;;;;1.83;100.00;101151.81;5052436;28;20053;-60
2023/02/11 08:16:37;;;;;;;130.45;42.72;;;;;;;1.82;100.00;101149.28;5050356;28;20025;-59
2023/02/11 08:19:16;;;;;;;129.05;42.85;;;;;;;1.83;100.00;101148.31;5045926;28;20498;-60
2023/02/11 08:21:42;;;;;;;123.47;43.15;;;;;;;1.83;100.00;101146.50;5028720;28;20025;-60
2023/02/11 08:24:07;;;;;;;141.68;43.75;;;;;;;1.88;100.00;101149.56;5040674;28;20033;-59
2023/02/11 08:26:36;;;;;;;109.93;39.47;;;;;;;1.96;100.00;101148.06;5043341;28;20222;-59
2023/02/11 08:29:04;;;;;;;115.70;39.47;;;;;;;1.94;100.00;101151.66;5023595;28;20018;-61
2023/02/11 08:31:32;;;;;;;131.10;43.28;;;;;;;2.00;100.00;101146.78;5042451;28;20044;-59
2023/02/11 08:33:58;;;;;;;127.05;43.08;;;;;;;1.94;100.00;101135.78;5052372;28;20094;-59
2023/02/11 08:36:26;;;;;;;132.05;42.50;;;;;;;2.06;100.00;101140.94;5035475;28;20452;-59
2023/02/11 08:38:54;;;;;;;134.07;42.58;;;;;;;2.00;100.00;101142.34;5046001;28;20039;-60
2023/02/11 08:41:20;;;;;;;123.70;41.92;;;;;;;2.10;100.00;101139.69;5044218;28;20074;-60
2023/02/11 08:43:45;;;;;;;145.88;43.53;;;;;;;2.13;100.00;101142.88;5038390;28;20022;-60
2023/02/11 08:46:12;;;;;;;129.80;42.55;;;;;;;2.09;100.00;101146.78;5038558;28;20033;-59
2023/02/11 08:48:38;;;;;;;122.40;41.88;;;;;;;2.17;100.00;101151.38;5039828;28;20144;-59
2023/02/11 08:51:07;;;;;;;128.35;41.90;;;;;;;2.21;100.00;101142.19;5034679;28;20105;-59
2023/02/11 08:53:33;;;;;;;111.82;38.33;;;;;;;2.35;100.00;101147.03;5039268;28;20040;-59
2023/02/11 08:55:59;;;;;;;121.10;43.53;;;;;;;2.31;100.00;101150.94;5068954;28;20025;-60
2023/02/11 08:58:24;;;;;;;140.70;42.05;;;;;;;2.31;100.00;101150.09;5045643;28;20040;-60
2023/02/11 09:00:50;;;;;;;141.80;44.95;;;;;;;2.35;100.00;101162.91;5038328;28;20028;-60
2023/02/11 09:03:15;;;;;;;120.82;42.28;;;;;;;2.35;100.00;101165.56;5052534;28;20029;-60
2023/02/11 09:05:45;;;;;;;131.68;41.78;;;;;;;2.41;100.00;101169.44;5047632;28;20021;-59
2023/02/11 09:08:11;;;;;;;129.90;45.15;;;;;;;2.52;100.00;101181.69;5041932;28;20034;-60
2023/02/11 09:10:36;;;;;;;137.02;45.00;;;;;;;2.49;100.00;101171.38;5037172;28;20049;-60
2023/02/11 09:13:02;;;;;;;128.02;40.80;;;;;;;2.50;100.00;101173.06;5038732;28;20078;-60
2023/02/11 09:15:27;;;;;;;132.00;44.53;;;;;;;2.49;100.00;101174.84;5038750;28;20363;-60
2023/02/11 09:17:53;;;;;;;129.40;43.35;;;;;;;2.55;100.00;101181.41;5043855;28;20031;-59
2023/02/11 09:20:18;;;;;;;144.10;43.92;;;;;;;2.59;100.00;101183.63;5036072;28;20066;-60
2023/02/11 09:22:44;;;;;;;125.82;43.28;;;;;;;2.68;100.00;101189.06;5042810;28;20016;-59
2023/02/11 09:25:09;;;;;;;118.80;41.70;;;;;;;2.80;100.00;101182.59;5030735;28;20029;-59
2023/02/11 09:27:35;;;;;;;122.68;42.22;;;;;;;2.86;100.00;101183.84;5037818;28;20029;-59
2023/02/11 09:30:00;;;;;;;138.73;42.05;;;;;;;2.87;100.00;101185.50;5038190;28;20082;-60
2023/02/11 09:32:26;;;;;;;138.60;41.75;;;;;;;2.99;100.00;101187.00;5049734;28;20037;-59
2023/02/11 09:34:51;;;;;;;121.43;41.33;;;;;;;2.99;100.00;101192.28;5041495;28;20021;-58
2023/02/11 09:37:16;;;;;;;105.40;34.20;;;;;;;3.01;100.00;101191.16;5037190;28;20071;-58
2023/02/11 09:39:44;;;;;;;86.05;29.95;;;;;;;3.02;100.00;101192.00;5038798;28;20498;-58
2023/02/11 09:42:36;;;;;;;84.15;29.83;;;;;;;3.12;100.00;101186.66;5037266;28;20027;-60
2023/02/11 09:45:03;;;;;;;111.70;37.85;;;;;;;3.21;100.00;101186.63;5038910;28;20423;-58
2023/02/11 09:47:33;;;;;;;121.57;41.00;;;;;;;3.22;100.00;101188.31;5038784;28;20040;-57
2023/02/11 09:50:04;;;;;;;117.70;35.47;;;;;;;3.35;100.00;101182.66;5040682;28;20036;-60
2023/02/11 09:52:44;;;;;;;119.07;37.90;;;;;;;3.39;100.00;101196.44;5043996;28;20074;-60
2023/02/11 09:55:13;;;;;;;;;;;;;;;3.65;100.00;101202.72;5037449;28;20029;-58
2023/02/11 09:57:38;;;;;;;94.40;31.85;;;;;;;3.70;100.00;101199.63;5043970;28;20251;-59
2023/02/11 10:00:41;;;;;;;111.40;37.17;;;;;;;3.85;100.00;101207.91;5041777;28;20037;-59
2023/02/11 10:03:17;;;;;;;123.18;35.13;;;;;;;3.75;100.00;101210.63;5040378;28;20033;-58
2023/02/11 10:06:07;;;;;;;122.00;38.05;;;;;;;3.63;100.00;101209.97;5043379;28;20029;-60
2023/02/11 10:08:46;;;;;;;118.20;35.97;;;;;;;3.56;100.00;101224.81;5040724;28;20036;-59
2023/02/11 10:11:33;;;;;;;123.25;38.55;;;;;;;3.63;100.00;101217.13;5044268;28;20037;-60
2023/02/11 10:14:32;;;;;;;132.13;36.97;;;;;;;3.70;100.00;101223.50;5039502;28;20025;-60
2023/02/11 10:17:25;;;;;;;119.65;37.58;;;;;;;3.68;100.00;101220.97;5039968;28;20345;-60
2023/02/11 10:19:51;;;;;;;127.72;40.58;;;;;;;3.76;100.00;101222.88;5042434;28;20029;-59
2023/02/11 10:22:48;;;;;;;115.90;37.67;;;;;;;3.83;100.00;101228.44;5046155;28;20059;-60
2023/02/11 10:25:26;;;;;;;116.85;37.03;;;;;;;3.81;100.00;101225.09;5035780;28;20042;-60
2023/02/11 10:27:53;;;;;;;117.47;37.97;;;;;;;3.93;100.00;101229.19;5042293;28;20048;-60
2023/02/11 10:30:29;;;;;;;125.05;37.67;;;;;;;3.91;100.00;101236.47;5047618;28;20024;-59
2023/02/11 10:33:29;;;;;;;104.90;35.05;;;;;;;3.92;100.00;101239.94;5038894;28;20025;-59
2023/02/11 10:35:54;;;;;;;120.60;37.90;;;;;;;3.98;100.00;101242.84;5033801;28;20052;-59
2023/02/11 10:38:19;;;;;;;111.68;36.00;;;;;;;4.04;100.00;101244.06;5053129;28;20391;-59
2023/02/11 10:40:45;;;;;;;115.38;36.95;;;;;;;4.01;100.00;101234.59;5050152;28;20791;-59
2023/02/11 10:43:24;;;;;;;117.15;38.03;;;;;;;3.97;100.00;101232.38;5042773;28;20026;-60
2023/02/11 10:45:50;;;;;;;114.00;36.88;;;;;;;4.14;100.00;101230.72;5040373;28;20029;-59
2023/02/11 10:48:38;;;;;;;121.97;37.72;;;;;;;4.07;100.00;101234.00;5044896;28;20083;-59
2023/02/11 10:51:22;;;;;;;121.38;38.22;;;;;;;4.23;100.00;101230.66;5045685;28;20032;-59
2023/02/11 10:53:50;;;;;;;123.05;38.15;;;;;;;4.30;100.00;101239.69;5035855;28;20360;-59
2023/02/11 10:56:35;;;;;;;110.80;33.92;;;;;;;4.32;100.00;101229.75;5058177;28;20037;-59
2023/02/11 10:59:03;;;;;;;105.45;34.53;;;;;;;4.48;100.00;101239.66;5046952;28;20043;-59
2023/02/11 11:01:45;;;;;;;85.32;29.65;;;;;;;4.38;100.00;101224.81;5048213;28;20078;-59
2023/02/11 11:04:34;;;;;;;114.45;36.03;;;;;;;4.45;100.00;101220.56;5040139;28;20361;-59
2023/02/11 11:07:12;;;;;;;116.07;36.40;;;;;;;4.48;100.00;101229.03;5042670;28;20275;-59
2023/02/11 11:09:52;;;;;;;112.80;36.85;;;;;;;4.57;100.00;101218.47;5045685;28;20150;-59
2023/02/11 11:12:25;;;;;;;121.22;37.55;;;;;;;4.58;100.00;101218.31;5048237;28;20108;-59
2023/02/11 11:15:01;;;;;;;110.10;35.10;;;;;;;4.60;100.00;101207.56;5044950;28;20471;-59
2023/02/11 11:17:28;;;;;;;117.90;35.50;;;;;;;4.61;100.00;101206.56;5048111;28;20029;-59
2023/02/11 11:20:14;;;;;;;104.18;32.38;;;;;;;4.62;100.00;101197.59;5038390;28;20064;-58